createdAt,value
2023-03-03T00:00:07.254Z,0
2023-03-03T00:01:11.011Z,0
2023-03-03T00:02:14.783Z,0
2023-03-03T00:03:18.232Z,0
2023-03-03T00:04:21.605Z,0
2023-03-03T00:05:25.796Z,0
2023-03-03T00:06:28.793Z,0
2023-03-03T00:07:31.933Z,0
2023-03-03T00:08:35.236Z,0
2023-03-03T00:09:39.209Z,0
2023-03-03T00:10:42.268Z,0
2023-03-03T00:11:45.297Z,0
2023-03-03T00:12:48.368Z,0
2023-03-03T00:13:51.162Z,0
2023-03-03T00:14:54.381Z,0
2023-03-03T00:15:57.476Z,0
2023-03-03T00:17:01.130Z,0
2023-03-03T00:18:03.845Z,0
2023-03-03T00:19:06.560Z,0
2023-03-03T00:20:09.387Z,0
2023-03-03T00:21:13.610Z,0
2023-03-03T00:22:16.880Z,0
2023-03-03T00:23:19.981Z,0
2023-03-03T00:24:23.064Z,0
2023-03-03T00:25:26.398Z,0
2023-03-03T00:26:30.108Z,0
2023-03-03T00:27:33.792Z,0
2023-03-03T00:28:36.621Z,0
2023-03-03T00:29:40.318Z,0
2023-03-03T00:30:44.092Z,0
2023-03-03T00:31:47.265Z,0
2023-03-03T00:32:50.786Z,0
2023-03-03T00:33:53.830Z,0
2023-03-03T00:34:57.134Z,0
2023-03-03T00:36:00.639Z,0
2023-03-03T00:37:04.956Z,0
2023-03-03T00:38:08.345Z,0
2023-03-03T00:39:11.445Z,0
2023-03-03T00:40:14.860Z,0
2023-03-03T00:41:17.870Z,0
2023-03-03T00:42:20.749Z,0
2023-03-03T00:43:24.754Z,0
2023-03-03T00:44:28.427Z,0
2023-03-03T00:45:31.644Z,0
2023-03-03T00:46:35.396Z,0
2023-03-03T00:47:38.979Z,0
2023-03-03T00:48:43.007Z,0
2023-03-03T00:49:46.004Z,0
2023-03-03T00:50:48.432Z,0
2023-03-03T00:51:50.906Z,0
2023-03-03T00:52:55.095Z,0
2023-03-03T00:53:58.423Z,0
2023-03-03T00:55:01.513Z,0
2023-03-03T00:56:03.764Z,0
2023-03-03T00:57:06.947Z,0
2023-03-03T00:58:10.477Z,0
2023-03-03T00:59:13.282Z,0
2023-03-03T01:00:16.092Z,0
2023-03-03T01:01:19.778Z,0
2023-03-03T01:02:23.094Z,0
2023-03-03T01:03:27.114Z,0
2023-03-03T01:04:30.576Z,0
2023-03-03T01:05:33.328Z,0
2023-03-03T01:06:36.130Z,0
2023-03-03T01:07:39.845Z,0
2023-03-03T01:08:44.049Z,0
2023-03-03T01:09:47.685Z,0
2023-03-03T01:10:50.829Z,0
2023-03-03T01:11:54.308Z,0
2023-03-03T01:12:56.814Z,0
2023-03-03T01:14:00.498Z,0
2023-03-03T01:15:03.952Z,0
2023-03-03T01:16:07.061Z,0
2023-03-03T01:17:10.744Z,0
2023-03-03T01:18:13.553Z,0
2023-03-03T01:19:16.630Z,0
2023-03-03T01:20:20.147Z,0
2023-03-03T01:21:23.136Z,0
2023-03-03T01:22:25.384Z,0
2023-03-03T01:23:28.411Z,0
2023-03-03T01:24:33.379Z,0
2023-03-03T01:25:36.161Z,0
2023-03-03T01:26:39.146Z,0
2023-03-03T01:27:41.891Z,0
2023-03-03T01:28:45.270Z,0
2023-03-03T01:29:47.144Z,0
2023-03-03T01:30:50.536Z,0
2023-03-03T01:31:53.303Z,0
2023-03-03T01:32:56.852Z,0
2023-03-03T01:33:59.588Z,0
2023-03-03T01:35:02.383Z,0
2023-03-03T01:36:05.221Z,0
2023-03-03T01:37:07.938Z,0
2023-03-03T01:38:11.545Z,0
2023-03-03T01:39:14.073Z,0
2023-03-03T01:40:18.358Z,0
2023-03-03T01:41:21.356Z,0
2023-03-03T01:42:24.728Z,0
2023-03-03T01:43:28.014Z,0
2023-03-03T01:44:32.143Z,0
2023-03-03T01:45:35.140Z,0
2023-03-03T01:46:38.448Z,0
2023-03-03T01:47:41.305Z,0
2023-03-03T01:48:44.021Z,0
2023-03-03T01:49:47.305Z,0
2023-03-03T01:50:50.017Z,0
2023-03-03T01:51:52.831Z,0
2023-03-03T01:52:55.634Z,0
2023-03-03T01:53:59.028Z,0
2023-03-03T01:55:02.213Z,0
2023-03-03T01:56:06.349Z,0
2023-03-03T01:57:09.396Z,0
2023-03-03T01:58:13.114Z,0
2023-03-03T01:59:15.658Z,0
2023-03-03T02:00:19.350Z,0
2023-03-03T02:01:22.281Z,0
2023-03-03T02:02:26.129Z,0
2023-03-03T02:03:29.516Z,0
2023-03-03T02:04:32.541Z,0
2023-03-03T02:05:35.000Z,0
2023-03-03T02:06:38.015Z,0
2023-03-03T02:07:41.480Z,0
2023-03-03T02:08:44.262Z,0
2023-03-03T02:09:47.390Z,0
2023-03-03T02:10:50.708Z,0
2023-03-03T02:11:55.086Z,0
2023-03-03T02:12:58.542Z,0
2023-03-03T02:14:01.679Z,0
2023-03-03T02:15:05.688Z,0
2023-03-03T02:16:09.194Z,0
2023-03-03T02:17:12.988Z,0
2023-03-03T02:18:16.628Z,0
2023-03-03T02:19:19.463Z,0
2023-03-03T02:20:22.550Z,0
2023-03-03T02:21:25.080Z,0
2023-03-03T02:22:28.500Z,0
2023-03-03T02:23:32.256Z,0
2023-03-03T02:24:35.689Z,0
2023-03-03T02:25:38.610Z,0
2023-03-03T02:26:41.360Z,0
2023-03-03T02:27:45.603Z,0
2023-03-03T02:28:48.858Z,0
2023-03-03T02:29:51.671Z,0
2023-03-03T02:30:55.012Z,0
2023-03-03T02:31:58.201Z,0
2023-03-03T02:33:02.325Z,0
2023-03-03T02:34:05.358Z,0
2023-03-03T02:35:07.554Z,0
2023-03-03T02:36:10.728Z,0
2023-03-03T02:37:13.900Z,0
2023-03-03T02:38:17.296Z,0
2023-03-03T02:39:20.592Z,0
2023-03-03T02:40:23.747Z,0
2023-03-03T02:41:26.465Z,0
2023-03-03T02:42:29.939Z,0
2023-03-03T02:43:34.085Z,0
2023-03-03T02:44:37.254Z,0
2023-03-03T02:45:40.745Z,0
2023-03-03T02:46:44.456Z,0
2023-03-03T02:47:47.075Z,0
2023-03-03T02:48:50.413Z,0
2023-03-03T02:49:53.790Z,0
2023-03-03T02:50:56.797Z,0
2023-03-03T02:51:59.342Z,0
2023-03-03T02:53:02.663Z,0
2023-03-03T02:54:05.535Z,0
2023-03-03T02:55:08.340Z,0
2023-03-03T02:56:12.073Z,0
2023-03-03T02:57:15.175Z,0
2023-03-03T02:58:18.517Z,0
2023-03-03T02:59:22.680Z,0
2023-03-03T03:00:26.400Z,0
2023-03-03T03:01:29.209Z,0
2023-03-03T03:02:31.364Z,0
2023-03-03T03:03:35.098Z,0
2023-03-03T03:04:38.134Z,0
2023-03-03T03:05:41.563Z,0
2023-03-03T03:06:44.668Z,0
2023-03-03T03:07:47.839Z,0
2023-03-03T03:08:50.991Z,0
2023-03-03T03:09:54.094Z,0
2023-03-03T03:10:57.093Z,0
2023-03-03T03:12:00.195Z,0
2023-03-03T03:13:03.586Z,0
2023-03-03T03:14:06.048Z,0
2023-03-03T03:15:10.275Z,0
2023-03-03T03:16:13.714Z,0
2023-03-03T03:17:17.007Z,0
2023-03-03T03:18:20.412Z,0
2023-03-03T03:19:23.191Z,0
2023-03-03T03:20:26.140Z,0
2023-03-03T03:21:29.219Z,0
2023-03-03T03:22:32.369Z,0
2023-03-03T03:23:36.098Z,0
2023-03-03T03:24:39.156Z,0
2023-03-03T03:25:42.226Z,0
2023-03-03T03:26:45.416Z,0
2023-03-03T03:27:49.183Z,0
2023-03-03T03:28:52.311Z,0
2023-03-03T03:29:55.465Z,0
2023-03-03T03:30:59.683Z,0
2023-03-03T03:32:03.882Z,0
2023-03-03T03:33:06.983Z,0
2023-03-03T03:34:10.110Z,0
2023-03-03T03:35:13.784Z,0
2023-03-03T03:36:17.076Z,0
2023-03-03T03:37:19.554Z,0
2023-03-03T03:38:22.957Z,0
2023-03-03T03:39:25.500Z,0
2023-03-03T03:40:28.624Z,0
2023-03-03T03:41:31.741Z,0
2023-03-03T03:42:35.361Z,0
2023-03-03T03:43:38.741Z,0
2023-03-03T03:44:41.673Z,0
2023-03-03T03:45:44.877Z,0
2023-03-03T03:46:49.308Z,0
2023-03-03T03:47:52.757Z,0
2023-03-03T03:48:55.743Z,0
2023-03-03T03:49:59.013Z,0
2023-03-03T03:51:02.063Z,0
2023-03-03T03:52:05.124Z,0
2023-03-03T03:53:08.868Z,0
2023-03-03T03:54:12.892Z,0
2023-03-03T03:55:15.958Z,0
2023-03-03T03:56:19.248Z,0
2023-03-03T03:57:24.023Z,0
2023-03-03T03:58:29.154Z,0
2023-03-03T03:59:31.943Z,0
2023-03-03T04:00:35.014Z,0
2023-03-03T04:01:39.108Z,0
2023-03-03T04:02:43.417Z,0
2023-03-03T04:03:47.559Z,0
2023-03-03T04:04:50.637Z,0
2023-03-03T04:05:53.183Z,0
2023-03-03T04:06:56.090Z,0
2023-03-03T04:07:59.081Z,0
2023-03-03T04:09:02.142Z,0
2023-03-03T04:10:04.670Z,0
2023-03-03T04:11:07.541Z,0
2023-03-03T04:12:10.522Z,0
2023-03-03T04:13:13.497Z,0
2023-03-03T04:14:16.875Z,0
2023-03-03T04:15:20.264Z,0
2023-03-03T04:16:23.625Z,0
2023-03-03T04:17:26.437Z,0
2023-03-03T04:18:30.598Z,0
2023-03-03T04:19:33.120Z,0
2023-03-03T04:20:36.571Z,0
2023-03-03T04:21:39.304Z,0
2023-03-03T04:22:42.925Z,0
2023-03-03T04:23:46.694Z,0
2023-03-03T04:24:50.137Z,0
2023-03-03T04:25:53.020Z,0
2023-03-03T04:26:56.101Z,0
2023-03-03T04:27:59.429Z,0
2023-03-03T04:29:01.718Z,0
2023-03-03T04:30:04.439Z,0
2023-03-03T04:31:07.562Z,0
2023-03-03T04:32:11.368Z,0
2023-03-03T04:33:14.663Z,0
2023-03-03T04:34:18.835Z,0
2023-03-03T04:35:22.347Z,0
2023-03-03T04:36:26.388Z,0
2023-03-03T04:37:30.066Z,0
2023-03-03T04:38:33.699Z,0
2023-03-03T04:39:37.412Z,0
2023-03-03T04:40:41.630Z,0
2023-03-03T04:41:44.839Z,0
2023-03-03T04:42:48.883Z,0
2023-03-03T04:43:52.063Z,0
2023-03-03T04:44:55.311Z,0
2023-03-03T04:45:57.517Z,0
2023-03-03T04:47:00.799Z,0
2023-03-03T04:48:03.514Z,0
2023-03-03T04:49:08.245Z,0
2023-03-03T04:50:15.956Z,0
2023-03-03T04:51:18.803Z,0
2023-03-03T04:52:21.247Z,0
2023-03-03T04:53:23.461Z,0
2023-03-03T04:54:26.737Z,0
2023-03-03T04:55:29.723Z,0
2023-03-03T04:56:32.414Z,0
2023-03-03T04:57:36.208Z,0
2023-03-03T04:58:39.206Z,0
2023-03-03T04:59:42.630Z,0
2023-03-03T05:00:45.134Z,0
2023-03-03T05:01:47.286Z,0
2023-03-03T05:02:51.248Z,0
2023-03-03T05:03:54.863Z,0
2023-03-03T05:04:57.999Z,0
2023-03-03T05:06:02.599Z,0
2023-03-03T05:07:05.445Z,0
2023-03-03T05:08:08.882Z,0
2023-03-03T05:09:12.238Z,0
2023-03-03T05:10:16.277Z,0
2023-03-03T05:11:19.997Z,0
2023-03-03T05:12:22.485Z,0
2023-03-03T05:13:25.815Z,0
2023-03-03T05:14:28.948Z,0
2023-03-03T05:15:32.098Z,0
2023-03-03T05:16:34.287Z,0
2023-03-03T05:17:37.640Z,0
2023-03-03T05:18:41.014Z,0
2023-03-03T05:19:44.062Z,0
2023-03-03T05:20:47.726Z,0
2023-03-03T05:21:52.491Z,0
2023-03-03T05:22:55.534Z,0
2023-03-03T05:23:58.695Z,0
2023-03-03T05:25:01.693Z,0
2023-03-03T05:26:04.694Z,0
2023-03-03T05:27:08.092Z,0
2023-03-03T05:28:11.173Z,0
2023-03-03T05:29:13.754Z,4
2023-03-03T05:30:16.839Z,4
2023-03-03T05:31:19.608Z,0
2023-03-03T05:32:23.124Z,4
2023-03-03T05:33:27.180Z,4
2023-03-03T05:34:30.341Z,4
2023-03-03T05:35:33.057Z,8
2023-03-03T05:36:36.990Z,8
2023-03-03T05:37:41.123Z,8
2023-03-03T05:38:44.217Z,12
2023-03-03T05:39:47.592Z,12
2023-03-03T05:40:51.360Z,16
2023-03-03T05:41:54.808Z,20
2023-03-03T05:42:57.554Z,24
2023-03-03T05:44:01.089Z,24
2023-03-03T05:45:04.520Z,32
2023-03-03T05:46:07.864Z,40
2023-03-03T05:47:11.554Z,44
2023-03-03T05:48:15.838Z,48
2023-03-03T05:49:18.893Z,56
2023-03-03T05:50:21.887Z,64
2023-03-03T05:51:25.345Z,72
2023-03-03T05:52:28.689Z,80
2023-03-03T05:53:32.790Z,88
2023-03-03T05:54:36.227Z,96
2023-03-03T05:55:39.306Z,112
2023-03-03T05:56:42.375Z,128
2023-03-03T05:57:45.100Z,140
2023-03-03T05:58:47.835Z,144
2023-03-03T05:59:51.313Z,160
2023-03-03T06:00:54.727Z,176
2023-03-03T06:01:58.170Z,196
2023-03-03T06:03:01.702Z,208
2023-03-03T06:04:04.671Z,228
2023-03-03T06:05:08.433Z,252
2023-03-03T06:06:11.043Z,268
2023-03-03T06:07:13.907Z,288
2023-03-03T06:08:17.036Z,312
2023-03-03T06:09:21.340Z,344
2023-03-03T06:10:24.695Z,388
2023-03-03T06:11:27.652Z,408
2023-03-03T06:12:31.033Z,440
2023-03-03T06:13:34.104Z,444
2023-03-03T06:14:36.684Z,460
2023-03-03T06:15:39.792Z,468
2023-03-03T06:16:43.620Z,496
2023-03-03T06:17:47.541Z,552
2023-03-03T06:18:50.356Z,596
2023-03-03T06:19:53.437Z,600
2023-03-03T06:20:56.232Z,648
2023-03-03T06:22:00.717Z,720
2023-03-03T06:23:04.549Z,748
2023-03-03T06:24:07.976Z,808
2023-03-03T06:25:12.117Z,848
2023-03-03T06:26:15.349Z,880
2023-03-03T06:27:18.707Z,940
2023-03-03T06:28:22.345Z,988
2023-03-03T06:29:26.081Z,1016
2023-03-03T06:30:29.141Z,1104
2023-03-03T06:31:32.610Z,1112
2023-03-03T06:32:35.991Z,1180
2023-03-03T06:33:39.384Z,1272
2023-03-03T06:34:43.021Z,1344
2023-03-03T06:35:46.407Z,1352
2023-03-03T06:36:49.630Z,1476
2023-03-03T06:37:52.770Z,1628
2023-03-03T06:38:56.157Z,1804
2023-03-03T06:39:59.895Z,1872
2023-03-03T06:41:04.150Z,1952
2023-03-03T06:42:07.133Z,1816
2023-03-03T06:43:09.855Z,1684
2023-03-03T06:44:12.063Z,1680
2023-03-03T06:45:14.811Z,1764
2023-03-03T06:46:18.163Z,1884
2023-03-03T06:47:21.215Z,1992
2023-03-03T06:48:24.664Z,2084
2023-03-03T06:49:27.390Z,2060
2023-03-03T06:50:30.769Z,2036
2023-03-03T06:51:34.527Z,2100
2023-03-03T06:52:38.198Z,2296
2023-03-03T06:53:41.278Z,2332
2023-03-03T06:54:44.277Z,2280
2023-03-03T06:55:46.460Z,2260
2023-03-03T06:56:50.588Z,2372
2023-03-03T06:57:54.000Z,2672
2023-03-03T06:58:56.993Z,3068
2023-03-03T06:59:59.971Z,2980
2023-03-03T07:01:03.010Z,2864
2023-03-03T07:02:06.414Z,2888
2023-03-03T07:03:09.384Z,3164
2023-03-03T07:04:12.358Z,3308
2023-03-03T07:05:15.297Z,3328
2023-03-03T07:06:18.013Z,3188
2023-03-03T07:07:20.996Z,3316
2023-03-03T07:08:24.071Z,3212
2023-03-03T07:09:27.132Z,2972
2023-03-03T07:10:29.834Z,2852
2023-03-03T07:11:33.050Z,2784
2023-03-03T07:12:37.195Z,2892
2023-03-03T07:13:40.342Z,3032
2023-03-03T07:14:43.368Z,3248
2023-03-03T07:15:46.205Z,3464
2023-03-03T07:16:48.937Z,3812
2023-03-03T07:17:52.251Z,3980
2023-03-03T07:18:55.585Z,4024
2023-03-03T07:19:59.603Z,4280
2023-03-03T07:21:02.526Z,4508
2023-03-03T07:22:05.888Z,4740
2023-03-03T07:23:09.339Z,4940
2023-03-03T07:24:12.672Z,4608
2023-03-03T07:25:16.107Z,4472
2023-03-03T07:26:19.200Z,4784
2023-03-03T07:27:22.222Z,5028
2023-03-03T07:28:26.441Z,5420
2023-03-03T07:29:29.833Z,5192
2023-03-03T07:30:33.684Z,5376
2023-03-03T07:31:36.620Z,5480
2023-03-03T07:32:39.409Z,5176
2023-03-03T07:33:42.147Z,5540
2023-03-03T07:34:45.330Z,5252
2023-03-03T07:35:48.021Z,4864
2023-03-03T07:36:52.313Z,5440
2023-03-03T07:37:55.722Z,5516
2023-03-03T07:38:59.980Z,5264
2023-03-03T07:40:03.367Z,4724
2023-03-03T07:41:06.977Z,4452
2023-03-03T07:42:10.733Z,4028
2023-03-03T07:43:14.094Z,4176
2023-03-03T07:44:18.248Z,4248
2023-03-03T07:45:21.839Z,4844
2023-03-03T07:46:25.275Z,5952
2023-03-03T07:47:28.400Z,6116
2023-03-03T07:48:31.655Z,6504
2023-03-03T07:49:34.089Z,6768
2023-03-03T07:50:37.494Z,6412
2023-03-03T07:51:41.210Z,6652
2023-03-03T07:52:44.811Z,7060
2023-03-03T07:53:48.177Z,6928
2023-03-03T07:54:51.806Z,6916
2023-03-03T07:55:55.142Z,6100
2023-03-03T07:56:57.867Z,5600
2023-03-03T07:58:01.359Z,6504
2023-03-03T07:59:04.715Z,5576
2023-03-03T08:00:08.906Z,5764
2023-03-03T08:01:12.550Z,6292
2023-03-03T08:02:15.854Z,6932
2023-03-03T08:03:18.298Z,6976
2023-03-03T08:04:21.952Z,7080
2023-03-03T08:05:26.096Z,7628
2023-03-03T08:06:29.594Z,7880
2023-03-03T08:07:32.612Z,8040
2023-03-03T08:08:35.977Z,8052
2023-03-03T08:09:39.167Z,7748
2023-03-03T08:10:42.538Z,7972
2023-03-03T08:11:47.338Z,8292
2023-03-03T08:12:51.125Z,8500
2023-03-03T08:13:53.169Z,7864
2023-03-03T08:14:56.861Z,8440
2023-03-03T08:16:01.053Z,9068
2023-03-03T08:17:04.780Z,9440
2023-03-03T08:18:08.157Z,9936
2023-03-03T08:19:11.520Z,9832
2023-03-03T08:20:14.897Z,9496
2023-03-03T08:21:17.607Z,9192
2023-03-03T08:22:20.669Z,9660
2023-03-03T08:23:23.405Z,9596
2023-03-03T08:24:25.871Z,8584
2023-03-03T08:25:29.205Z,9008
2023-03-03T08:26:33.281Z,8784
2023-03-03T08:27:36.354Z,8528
2023-03-03T08:28:39.454Z,7000
2023-03-03T08:29:42.810Z,7224
2023-03-03T08:30:46.996Z,8260
2023-03-03T08:31:51.598Z,7584
2023-03-03T08:32:55.825Z,6688
2023-03-03T08:33:58.841Z,6496
2023-03-03T08:35:00.998Z,6816
2023-03-03T08:36:04.279Z,7372
2023-03-03T08:37:08.407Z,6192
2023-03-03T08:38:12.086Z,6864
2023-03-03T08:39:15.632Z,6896
2023-03-03T08:40:19.349Z,7840
2023-03-03T08:41:22.975Z,8132
2023-03-03T08:42:25.135Z,7612
2023-03-03T08:43:28.424Z,6916
2023-03-03T08:44:31.500Z,6632
2023-03-03T08:45:35.182Z,6648
2023-03-03T08:46:38.079Z,6924
2023-03-03T08:47:42.745Z,6944
2023-03-03T08:48:45.919Z,7384
2023-03-03T08:49:49.381Z,8180
2023-03-03T08:50:52.465Z,8784
2023-03-03T08:51:55.548Z,8500
2023-03-03T08:52:58.983Z,7788
2023-03-03T08:54:02.516Z,8616
2023-03-03T08:55:07.655Z,9004
2023-03-03T08:56:12.011Z,9648
2023-03-03T08:57:15.763Z,9452
2023-03-03T08:58:19.104Z,10024
2023-03-03T08:59:38.318Z,9792
2023-03-03T09:00:41.688Z,9948
2023-03-03T09:01:45.334Z,11176
2023-03-03T09:02:50.078Z,11556
2023-03-03T09:03:53.774Z,10260
2023-03-03T09:04:57.475Z,9296
2023-03-03T09:06:00.495Z,8160
2023-03-03T09:07:03.689Z,8268
2023-03-03T09:08:06.685Z,8464
2023-03-03T09:09:09.142Z,8744
2023-03-03T09:10:12.496Z,9492
2023-03-03T09:11:15.580Z,10136
2023-03-03T09:12:19.094Z,10376
2023-03-03T09:13:22.212Z,10988
2023-03-03T09:14:25.371Z,12756
2023-03-03T09:15:28.766Z,12636
2023-03-03T09:16:32.223Z,11544
2023-03-03T09:17:36.062Z,11624
2023-03-03T09:18:40.264Z,11524
2023-03-03T09:19:43.699Z,10336
2023-03-03T09:20:47.373Z,9620
2023-03-03T09:21:50.457Z,9092
2023-03-03T09:22:54.101Z,10420
2023-03-03T09:23:57.858Z,11412
2023-03-03T09:25:00.960Z,12492
2023-03-03T09:26:04.316Z,11860
2023-03-03T09:27:07.388Z,11404
2023-03-03T09:28:10.180Z,11340
2023-03-03T09:29:13.544Z,10260
2023-03-03T09:30:17.398Z,10552
2023-03-03T09:31:20.468Z,12204
2023-03-03T09:32:24.035Z,13040
2023-03-03T09:33:27.907Z,11536
2023-03-03T09:34:32.325Z,11188
2023-03-03T09:35:35.111Z,11280
2023-03-03T09:36:38.395Z,10400
2023-03-03T09:37:40.856Z,10272
2023-03-03T09:38:43.936Z,10776
2023-03-03T09:39:47.027Z,12112
2023-03-03T09:40:51.029Z,13092
2023-03-03T09:41:53.770Z,13964
2023-03-03T09:42:57.125Z,13084
2023-03-03T09:44:00.146Z,13464
2023-03-03T09:45:03.306Z,13640
2023-03-03T09:46:06.826Z,11904
2023-03-03T09:47:09.629Z,11396
2023-03-03T09:48:13.348Z,12596
2023-03-03T09:49:16.816Z,12184
2023-03-03T09:50:20.972Z,12552
2023-03-03T09:51:23.766Z,12708
2023-03-03T09:52:26.976Z,12476
2023-03-03T09:53:30.395Z,11984
2023-03-03T09:54:33.520Z,11624
2023-03-03T09:55:37.331Z,10860
2023-03-03T09:56:40.724Z,10804
2023-03-03T09:57:43.903Z,10748
2023-03-03T09:58:46.969Z,9860
2023-03-03T09:59:50.295Z,9104
2023-03-03T10:00:53.648Z,9372
2023-03-03T10:01:57.735Z,10048
2023-03-03T10:03:00.776Z,10296
2023-03-03T10:04:03.809Z,11076
2023-03-03T10:05:07.537Z,10408
2023-03-03T10:06:11.689Z,10960
2023-03-03T10:07:14.450Z,10624
2023-03-03T10:08:17.637Z,9956
2023-03-03T10:09:21.010Z,9080
2023-03-03T10:10:24.260Z,9116
2023-03-03T10:11:26.794Z,8872
2023-03-03T10:12:29.872Z,9268
2023-03-03T10:13:33.369Z,8072
2023-03-03T10:14:36.368Z,7932
2023-03-03T10:15:39.102Z,8228
2023-03-03T10:16:42.298Z,9668
2023-03-03T10:17:46.818Z,9480
2023-03-03T10:18:51.081Z,9636
2023-03-03T10:19:55.118Z,9224
2023-03-03T10:20:58.528Z,9984
2023-03-03T10:22:02.696Z,9864
2023-03-03T10:23:06.366Z,9632
2023-03-03T10:24:09.148Z,9444
2023-03-03T10:25:12.894Z,10304
2023-03-03T10:26:15.333Z,10856
2023-03-03T10:27:18.217Z,9408
2023-03-03T10:28:21.877Z,10260
2023-03-03T10:29:24.878Z,11104
2023-03-03T10:30:39.745Z,12792
2023-03-03T10:32:29.094Z,14244
2023-03-03T10:33:34.688Z,13536
2023-03-03T10:34:38.453Z,14752
2023-03-03T10:35:42.077Z,14768
2023-03-03T10:37:10.311Z,12472
2023-03-03T10:38:14.409Z,13560
2023-03-03T10:39:17.877Z,11892
2023-03-03T10:40:21.547Z,12288
2023-03-03T10:41:24.914Z,12184
2023-03-03T10:42:27.644Z,12608
2023-03-03T10:43:32.313Z,10756
2023-03-03T10:44:36.558Z,10604
2023-03-03T10:45:39.760Z,11000
2023-03-03T10:46:43.737Z,9484
2023-03-03T10:47:47.121Z,8740
2023-03-03T10:48:50.504Z,9128
2023-03-03T10:49:54.496Z,11448
2023-03-03T10:50:58.039Z,10800
2023-03-03T10:52:03.117Z,11348
2023-03-03T10:53:07.054Z,12932
2023-03-03T10:54:10.827Z,14480
2023-03-03T10:55:13.981Z,14464
2023-03-03T10:56:16.963Z,14236
2023-03-03T10:57:20.284Z,15104
2023-03-03T10:58:23.653Z,19456
2023-03-03T10:59:26.912Z,23072
2023-03-03T11:00:29.818Z,22752
2023-03-03T11:01:33.344Z,21632
2023-03-03T11:02:37.681Z,19296
2023-03-03T11:03:40.680Z,21984
2023-03-03T11:04:43.848Z,19040
2023-03-03T11:05:47.614Z,19168
2023-03-03T11:06:51.643Z,15724
2023-03-03T11:07:55.037Z,14580
2023-03-03T11:08:58.868Z,13272
2023-03-03T11:10:04.241Z,15076
2023-03-03T11:11:07.618Z,18020
2023-03-03T11:12:10.393Z,19520
2023-03-03T11:13:14.136Z,19488
2023-03-03T11:14:16.909Z,15348
2023-03-03T11:15:20.033Z,18176
2023-03-03T11:16:22.956Z,19744
2023-03-03T11:17:26.701Z,16632
2023-03-03T11:18:30.064Z,13988
2023-03-03T11:19:34.399Z,14380
2023-03-03T11:20:37.184Z,14144
2023-03-03T11:21:40.918Z,15128
2023-03-03T11:22:44.096Z,17644
2023-03-03T11:23:47.728Z,15232
2023-03-03T11:24:51.807Z,13056
2023-03-03T11:25:55.718Z,9924
2023-03-03T11:26:59.426Z,11824
2023-03-03T11:28:02.893Z,11868
2023-03-03T11:29:06.384Z,10860
2023-03-03T11:30:09.818Z,11784
2023-03-03T11:31:13.188Z,13104
2023-03-03T11:32:16.775Z,12328
2023-03-03T11:33:20.192Z,13320
2023-03-03T11:34:23.736Z,12732
2023-03-03T11:35:26.216Z,10744
2023-03-03T11:36:29.901Z,11900
2023-03-03T11:37:36.838Z,13012
2023-03-03T11:38:40.022Z,12640
2023-03-03T11:39:42.937Z,14688
2023-03-03T11:40:46.782Z,16440
2023-03-03T11:41:50.518Z,16392
2023-03-03T11:42:53.920Z,15236
2023-03-03T11:43:56.357Z,16904
2023-03-03T11:44:59.160Z,14664
2023-03-03T11:46:02.930Z,12368
2023-03-03T11:47:06.579Z,13744
2023-03-03T11:48:09.368Z,13980
2023-03-03T11:49:12.516Z,12532
2023-03-03T11:50:15.609Z,10632
2023-03-03T11:51:18.958Z,9104
2023-03-03T11:52:22.312Z,7080
2023-03-03T11:53:24.827Z,6764
2023-03-03T11:54:28.158Z,7128
2023-03-03T11:55:31.695Z,7816
2023-03-03T11:56:35.600Z,6640
2023-03-03T11:57:38.924Z,5028
2023-03-03T11:58:42.609Z,4844
2023-03-03T11:59:46.013Z,5528
2023-03-03T12:00:48.870Z,5472
2023-03-03T12:01:52.492Z,6552
2023-03-03T12:02:56.225Z,7160
2023-03-03T12:04:00.238Z,8524
2023-03-03T12:05:04.229Z,9628
2023-03-03T12:06:07.741Z,10400
2023-03-03T12:07:19.233Z,9456
2023-03-03T12:08:23.374Z,9652
2023-03-03T12:09:26.536Z,9652
2023-03-03T12:10:29.965Z,9816
2023-03-03T12:11:33.709Z,8604
2023-03-03T12:12:37.816Z,9164
2023-03-03T12:13:41.614Z,9400
2023-03-03T12:14:44.618Z,10180
2023-03-03T12:15:48.306Z,9760
2023-03-03T12:16:51.935Z,10036
2023-03-03T12:17:54.922Z,11124
2023-03-03T12:18:58.038Z,11860
2023-03-03T12:20:01.115Z,12464
2023-03-03T12:21:04.262Z,11240
2023-03-03T12:22:07.388Z,11892
2023-03-03T12:23:10.474Z,9712
2023-03-03T12:24:13.917Z,7924
2023-03-03T12:25:16.963Z,6256
2023-03-03T12:26:19.622Z,6380
2023-03-03T12:27:23.678Z,6560
2023-03-03T12:28:27.504Z,9428
2023-03-03T12:29:31.274Z,10708
2023-03-03T12:30:34.396Z,10808
2023-03-03T12:31:37.555Z,9980
2023-03-03T12:32:40.795Z,10052
2023-03-03T12:33:44.236Z,9120
2023-03-03T12:34:48.081Z,9508
2023-03-03T12:35:51.555Z,9968
2023-03-03T12:36:54.579Z,10224
2023-03-03T12:37:57.574Z,10720
2023-03-03T12:39:00.943Z,10140
2023-03-03T12:40:04.280Z,8640
2023-03-03T12:41:07.100Z,8748
2023-03-03T12:42:10.781Z,9992
2023-03-03T12:43:14.328Z,10560
2023-03-03T12:44:18.190Z,11360
2023-03-03T12:45:21.948Z,13740
2023-03-03T12:46:29.277Z,19808
2023-03-03T12:47:33.414Z,17364
2023-03-03T12:48:36.440Z,12364
2023-03-03T12:49:43.351Z,10556
2023-03-03T12:51:13.233Z,8056
2023-03-03T12:52:17.256Z,7712
2023-03-03T12:53:20.340Z,7760
2023-03-03T12:54:23.830Z,9608
2023-03-03T12:55:27.633Z,9472
2023-03-03T12:56:31.340Z,8968
2023-03-03T12:57:34.684Z,8288
2023-03-03T12:58:38.015Z,7864
2023-03-03T12:59:41.717Z,7224
2023-03-03T13:00:44.953Z,7120
2023-03-03T13:01:49.359Z,7576
2023-03-03T13:02:52.508Z,7432
2023-03-03T13:03:56.383Z,7268
2023-03-03T13:05:00.000Z,7372
2023-03-03T13:06:02.915Z,7540
2023-03-03T13:07:05.387Z,8372
2023-03-03T13:08:09.161Z,7964
2023-03-03T13:09:12.460Z,7820
2023-03-03T13:10:15.544Z,7376
2023-03-03T13:11:19.306Z,6556
2023-03-03T13:12:22.376Z,6908
2023-03-03T13:13:26.080Z,7888
2023-03-03T13:14:29.476Z,8784
2023-03-03T13:15:35.014Z,9116
2023-03-03T13:16:59.516Z,7916
2023-03-03T13:18:03.206Z,8388
2023-03-03T13:19:05.705Z,7996
2023-03-03T13:20:08.538Z,7936
2023-03-03T13:21:11.623Z,8292
2023-03-03T13:22:15.003Z,7308
2023-03-03T13:23:18.101Z,8096
2023-03-03T13:24:21.304Z,8148
2023-03-03T13:25:24.387Z,7076
2023-03-03T13:26:27.442Z,6744
2023-03-03T13:27:34.136Z,7148
2023-03-03T13:28:37.514Z,7252
2023-03-03T13:29:40.417Z,7088
2023-03-03T13:30:44.030Z,6728
2023-03-03T13:31:47.514Z,7404
2023-03-03T13:32:51.656Z,7432
2023-03-03T13:33:54.488Z,6928
2023-03-03T13:34:57.572Z,6232
2023-03-03T13:36:01.339Z,6348
2023-03-03T13:37:04.332Z,5432
2023-03-03T13:38:07.589Z,5800
2023-03-03T13:39:10.489Z,7860
2023-03-03T13:40:13.855Z,8232
2023-03-03T13:41:17.036Z,9184
2023-03-03T13:42:20.423Z,9852
2023-03-03T13:43:23.447Z,9904
2023-03-03T13:44:26.656Z,9288
2023-03-03T13:45:29.930Z,8764
2023-03-03T13:46:35.822Z,8624
2023-03-03T13:47:38.873Z,8600
2023-03-03T13:48:42.494Z,8388
2023-03-03T13:49:47.330Z,8156
2023-03-03T13:50:51.133Z,6992
2023-03-03T13:51:54.208Z,6732
2023-03-03T13:52:57.672Z,7092
2023-03-03T13:54:01.298Z,6172
2023-03-03T13:55:04.406Z,5688
2023-03-03T13:56:07.866Z,5644
2023-03-03T13:57:11.208Z,5496
2023-03-03T13:58:14.976Z,4824
2023-03-03T13:59:18.389Z,4632
2023-03-03T14:00:21.485Z,4368
2023-03-03T14:01:24.063Z,4264
2023-03-03T14:02:28.364Z,4320
2023-03-03T14:03:31.900Z,4304
2023-03-03T14:04:35.702Z,4732
2023-03-03T14:05:38.922Z,4544
2023-03-03T14:06:41.913Z,4076
2023-03-03T14:07:45.030Z,3816
2023-03-03T14:08:47.545Z,3572
2023-03-03T14:09:50.932Z,3624
2023-03-03T14:10:54.208Z,3524
2023-03-03T14:11:57.766Z,3148
2023-03-03T14:13:01.280Z,2944
2023-03-03T14:14:04.125Z,2860
2023-03-03T14:15:07.547Z,2904
2023-03-03T14:16:11.093Z,2668
2023-03-03T14:17:15.149Z,2804
2023-03-03T14:18:19.319Z,2700
2023-03-03T14:19:22.827Z,2896
2023-03-03T14:20:25.962Z,3084
2023-03-03T14:21:29.766Z,2844
2023-03-03T14:22:32.845Z,2568
2023-03-03T14:23:35.873Z,2504
2023-03-03T14:24:39.199Z,2460
2023-03-03T14:25:41.617Z,2320
2023-03-03T14:26:45.337Z,2452
2023-03-03T14:27:49.090Z,2560
2023-03-03T14:28:52.177Z,2644
2023-03-03T14:29:55.045Z,2328
2023-03-03T14:30:58.190Z,2236
2023-03-03T14:32:04.985Z,2840
2023-03-03T14:33:08.301Z,2836
2023-03-03T14:34:12.238Z,2724
2023-03-03T14:35:15.693Z,2872
2023-03-03T14:36:19.086Z,2960